Time;durP1;ratioP1;P1;durP2;ratioP2;P2;SDS_P1;SDS_P2;PMS_P1;PMS_P2;Temp;Humidity;BMP_temperature;BMP_pressure;BME280_temperature;BME280_humidity;BME280_pressure;Samples;Min_cycle;Max_cycle;Signal;HPM_P1;HPM_P2
2021/03/10 00:00:13;;;;;;;20.38;15.00;;;;;;;;;;5043094;28;20067;-92
2021/03/10 00:02:39;;;;;;;21.90;16.70;;;;;;;;;;5062116;28;20037;-91
2021/03/10 00:05:07;;;;;;;21.63;16.23;;;;;;;;;;5053719;28;20473;-93
2021/03/10 00:07:34;;;;;;;22.27;16.25;;;;;;;;;;5043847;28;20033;-91
2021/03/10 00:10:00;;;;;;;20.38;15.25;;;;;;;;;;5045925;28;20069;-91
2021/03/10 00:12:26;;;;;;;23.75;17.88;;;;;;;;;;5042100;28;20065;-92
2021/03/10 00:14:53;;;;;;;22.35;16.77;;;;;;;;;;5043425;28;20452;-93
2021/03/10 00:17:19;;;;;;;23.40;17.85;;;;;;;;;;5046187;28;20040;-92
2021/03/10 00:19:46;;;;;;;23.00;16.85;;;;;;;;;;5046084;28;20473;-91
2021/03/10 00:22:12;;;;;;;25.60;18.15;;;;;;;;;;5036393;28;20045;-91
2021/03/10 00:24:38;;;;;;;23.08;17.15;;;;;;;;;;5042982;28;20575;-92
2021/03/10 00:27:05;;;;;;;24.30;17.10;;;;;;;;;;5049120;28;20080;-92
2021/03/10 00:29:32;;;;;;;25.40;18.13;;;;;;;;;;5045343;28;20037;-92
2021/03/10 00:31:58;;;;;;;24.02;17.48;;;;;;;;;;5043955;28;20059;-92
2021/03/10 00:34:24;;;;;;;22.38;16.58;;;;;;;;;;5044511;28;20044;-92
2021/03/10 00:36:51;;;;;;;23.77;16.83;;;;;;;;;;5044581;28;20057;-93
2021/03/10 00:39:17;;;;;;;24.50;16.88;;;;;;;;;;5043961;28;20048;-92
2021/03/10 00:41:43;;;;;;;25.77;17.88;;;;;;;;;;5041323;28;20071;-90
2021/03/10 00:44:10;;;;;;;25.55;18.13;;;;;;;;;;5039673;28;20052;-90
2021/03/10 00:46:36;;;;;;;23.95;17.70;;;;;;;;;;5045405;28;20072;-92
2021/03/10 00:49:02;;;;;;;23.15;17.20;;;;;;;;;;5047796;28;20059;-93
2021/03/10 00:51:28;;;;;;;26.08;18.88;;;;;;;;;;5044512;28;20476;-93
2021/03/10 00:53:55;;;;;;;22.55;16.90;;;;;;;;;;5039229;28;20072;-94
2021/03/10 00:56:21;;;;;;;23.67;17.67;;;;;;;;;;5040250;28;20121;-91
2021/03/10 00:58:49;;;;;;;24.98;18.48;;;;;;;;;;5040053;28;20052;-91
2021/03/10 01:01:16;;;;;;;25.30;17.17;;;;;;;;;;5038512;28;20461;-91
2021/03/10 01:03:42;;;;;;;25.02;18.88;;;;;;;;;;5044403;28;20045;-92
2021/03/10 01:06:11;;;;;;;27.70;19.52;;;;;;;;;;5038203;28;20381;-91
2021/03/10 01:08:37;;;;;;;25.08;18.38;;;;;;;;;;5042571;28;20052;-92
2021/03/10 01:11:03;;;;;;;26.92;18.38;;;;;;;;;;5043680;28;20083;-92
2021/03/10 01:13:30;;;;;;;24.35;17.50;;;;;;;;;;5042221;28;20077;-92
2021/03/10 01:15:56;;;;;;;26.17;19.33;;;;;;;;;;5037853;28;20143;-92
2021/03/10 01:18:22;;;;;;;26.00;19.40;;;;;;;;;;5042166;28;20033;-92
2021/03/10 01:20:49;;;;;;;24.77;18.52;;;;;;;;;;5045784;28;20071;-93
2021/03/10 01:23:15;;;;;;;27.30;19.23;;;;;;;;;;5054001;28;20053;-91
2021/03/10 01:25:41;;;;;;;26.40;20.08;;;;;;;;;;5055992;28;20072;-93
2021/03/10 01:28:08;;;;;;;25.50;19.83;;;;;;;;;;5042813;28;20085;-92
2021/03/10 01:30:34;;;;;;;26.30;18.42;;;;;;;;;;5039851;28;20037;-92
2021/03/10 01:33:00;;;;;;;27.88;20.38;;;;;;;;;;5046422;28;20445;-91
2021/03/10 01:35:27;;;;;;;26.10;18.17;;;;;;;;;;5043162;28;20381;-91
2021/03/10 01:37:53;;;;;;;25.80;18.95;;;;;;;;;;5048279;28;20568;-93
2021/03/10 01:40:20;;;;;;;24.25;18.35;;;;;;;;;;5039825;28;20052;-92
2021/03/10 01:42:46;;;;;;;24.58;18.02;;;;;;;;;;5042943;28;20082;-91
2021/03/10 01:45:13;;;;;;;25.77;18.60;;;;;;;;;;5035592;28;20103;-92
2021/03/10 01:47:41;;;;;;;25.65;18.48;;;;;;;;;;5040848;28;20037;-92
2021/03/10 01:50:08;;;;;;;22.67;16.45;;;;;;;;;;5043878;28;20072;-92
2021/03/10 01:52:34;;;;;;;23.92;16.95;;;;;;;;;;5055029;28;20108;-91
2021/03/10 01:55:00;;;;;;;24.67;17.60;;;;;;;;;;5066653;28;20464;-93
2021/03/10 01:57:27;;;;;;;24.45;16.88;;;;;;;;;;5045022;28;20045;-93
2021/03/10 01:59:53;;;;;;;24.75;16.52;;;;;;;;;;5048116;28;20083;-94
2021/03/10 02:02:19;;;;;;;24.13;16.90;;;;;;;;;;5064418;28;20041;-92
2021/03/10 02:04:46;;;;;;;26.73;17.67;;;;;;;;;;5047450;28;20053;-92
2021/03/10 02:07:23;;;;;;;24.70;17.17;;;;;;;;;;5046525;28;20045;-92
2021/03/10 02:09:57;;;;;;;23.70;16.70;;;;;;;;;;5047034;28;20087;-89
2021/03/10 02:12:35;;;;;;;24.67;17.08;;;;;;;;;;5048018;28;20396;-92
2021/03/10 02:15:09;;;;;;;24.50;16.77;;;;;;;;;;5045874;28;20193;-93
2021/03/10 02:17:35;;;;;;;;;;;;;;;;;;5062320;28;20037;-93
2021/03/10 02:20:03;;;;;;;23.70;16.73;;;;;;;;;;5048782;28;19971;-91
2021/03/10 02:22:49;;;;;;;24.05;16.95;;;;;;;;;;5046209;28;20103;-91
2021/03/10 02:25:22;;;;;;;24.83;18.33;;;;;;;;;;5061770;28;20437;-92
2021/03/10 02:27:58;;;;;;;24.88;17.75;;;;;;;;;;5040655;28;20057;-92
2021/03/10 02:30:37;;;;;;;23.77;17.58;;;;;;;;;;5046900;28;20098;-92
2021/03/10 02:33:05;;;;;;;25.13;17.67;;;;;;;;;;5042539;28;20041;-92
2021/03/10 02:35:32;;;;;;;25.52;18.30;;;;;;;;;;5042045;28;20056;-92
2021/03/10 02:38:02;;;;;;;27.35;19.00;;;;;;;;;;5042794;28;20436;-92
2021/03/10 02:40:30;;;;;;;26.75;18.25;;;;;;;;;;5044532;28;20049;-92
2021/03/10 02:42:59;;;;;;;27.30;19.13;;;;;;;;;;5045040;28;20044;-91
2021/03/10 02:45:26;;;;;;;24.95;17.83;;;;;;;;;;5063559;28;20041;-91
2021/03/10 02:47:54;;;;;;;28.90;17.38;;;;;;;;;;5053120;28;20098;-92
2021/03/10 02:50:20;;;;;;;27.02;18.10;;;;;;;;;;5049241;28;20066;-91
2021/03/10 02:52:48;;;;;;;25.80;18.42;;;;;;;;;;5047568;28;20092;-92
2021/03/10 02:55:14;;;;;;;27.83;18.58;;;;;;;;;;5039541;28;20049;-91
2021/03/10 02:57:41;;;;;;;24.63;17.63;;;;;;;;;;5043929;28;20418;-91
2021/03/10 03:00:09;;;;;;;25.33;17.77;;;;;;;;;;5046514;28;20056;-92
2021/03/10 03:02:37;;;;;;;28.77;18.58;;;;;;;;;;5045610;28;20071;-90
2021/03/10 03:05:05;;;;;;;26.45;17.48;;;;;;;;;;5062070;28;20041;-92
2021/03/10 03:07:31;;;;;;;26.98;18.67;;;;;;;;;;5050516;28;20041;-91
2021/03/10 03:09:59;;;;;;;23.27;16.35;;;;;;;;;;5048801;28;20041;-92
2021/03/10 03:12:26;;;;;;;25.73;18.05;;;;;;;;;;5046767;28;20049;-92
2021/03/10 03:14:53;;;;;;;25.50;16.85;;;;;;;;;;5045178;28;20132;-91
2021/03/10 03:17:20;;;;;;;25.70;17.38;;;;;;;;;;5044335;28;20081;-91
2021/03/10 03:19:46;;;;;;;25.25;17.42;;;;;;;;;;5042404;28;20507;-91
2021/03/10 03:22:14;;;;;;;26.23;17.67;;;;;;;;;;5045811;28;20052;-92
2021/03/10 03:24:40;;;;;;;23.90;17.20;;;;;;;;;;5040783;28;20137;-92
2021/03/10 03:27:07;;;;;;;25.45;17.50;;;;;;;;;;5044016;28;20174;-92
2021/03/10 03:29:34;;;;;;;24.38;16.77;;;;;;;;;;5045687;28;20044;-91
2021/03/10 03:32:01;;;;;;;25.23;17.35;;;;;;;;;;5046717;28;20174;-91
2021/03/10 03:34:28;;;;;;;25.60;17.33;;;;;;;;;;5043594;28;20115;-91
2021/03/10 03:36:54;;;;;;;24.88;17.73;;;;;;;;;;5044649;28;20044;-91
2021/03/10 03:39:21;;;;;;;24.85;16.55;;;;;;;;;;5044693;28;20041;-90
2021/03/10 03:41:50;;;;;;;24.02;16.67;;;;;;;;;;5041775;28;20064;-92
2021/03/10 03:44:16;;;;;;;25.13;17.05;;;;;;;;;;5044842;28;20116;-92
2021/03/10 03:46:43;;;;;;;25.08;16.42;;;;;;;;;;5042682;28;20060;-91
2021/03/10 03:49:09;;;;;;;28.08;17.85;;;;;;;;;;5041258;28;20075;-92
2021/03/10 03:51:35;;;;;;;28.13;17.50;;;;;;;;;;5046722;28;20106;-92
2021/03/10 03:54:03;;;;;;;27.05;19.13;;;;;;;;;;5054717;28;20041;-91
2021/03/10 03:56:29;;;;;;;24.10;16.77;;;;;;;;;;5065544;28;20041;-92
2021/03/10 03:58:56;;;;;;;28.30;18.02;;;;;;;;;;5044456;28;20856;-91
2021/03/10 04:01:23;;;;;;;27.33;17.52;;;;;;;;;;5040570;28;20071;-92
2021/03/10 04:03:49;;;;;;;26.75;18.05;;;;;;;;;;5044249;28;20088;-91
2021/03/10 04:06:16;;;;;;;28.80;18.35;;;;;;;;;;5045582;28;20070;-92
2021/03/10 04:08:43;;;;;;;27.27;18.50;;;;;;;;;;5067295;28;20126;-90
2021/03/10 04:11:10;;;;;;;31.48;19.60;;;;;;;;;;5055523;28;20176;-92
2021/03/10 04:13:36;;;;;;;25.08;17.52;;;;;;;;;;5048369;28;20045;-91
2021/03/10 04:16:03;;;;;;;26.65;18.48;;;;;;;;;;5042316;28;20492;-91
2021/03/10 04:18:29;;;;;;;25.75;17.35;;;;;;;;;;5037461;28;20445;-89
2021/03/10 04:20:55;;;;;;;28.88;19.15;;;;;;;;;;5040216;28;20042;-90
2021/03/10 04:23:22;;;;;;;26.42;16.80;;;;;;;;;;5038495;28;20048;-90
2021/03/10 04:25:48;;;;;;;27.63;18.45;;;;;;;;;;5041235;28;20064;-91
2021/03/10 04:28:14;;;;;;;24.63;17.38;;;;;;;;;;5045603;28;20140;-90
2021/03/10 04:30:41;;;;;;;26.80;16.90;;;;;;;;;;5046111;28;20495;-92
2021/03/10 04:33:08;;;;;;;27.23;16.90;;;;;;;;;;5044968;28;20473;-93
2021/03/10 04:35:34;;;;;;;25.05;16.73;;;;;;;;;;5042957;28;20048;-91
2021/03/10 04:38:00;;;;;;;29.15;17.25;;;;;;;;;;5045534;28;20041;-90
2021/03/10 04:40:26;;;;;;;25.02;17.40;;;;;;;;;;5049485;28;20060;-90
2021/03/10 04:42:53;;;;;;;23.88;16.13;;;;;;;;;;5040326;28;20049;-90
2021/03/10 04:45:19;;;;;;;26.20;17.58;;;;;;;;;;5046589;28;20498;-91
2021/03/10 04:47:46;;;;;;;25.58;16.80;;;;;;;;;;5046913;28;20115;-92
2021/03/10 04:50:13;;;;;;;22.02;15.20;;;;;;;;;;5044381;28;20125;-92
2021/03/10 04:52:40;;;;;;;25.15;16.73;;;;;;;;;;5044395;28;20048;-91
2021/03/10 04:55:07;;;;;;;24.13;15.88;;;;;;;;;;5042706;28;20090;-91
2021/03/10 04:57:33;;;;;;;24.50;15.73;;;;;;;;;;5056993;28;20045;-90
2021/03/10 04:59:59;;;;;;;24.88;17.13;;;;;;;;;;5045554;28;20072;-91
2021/03/10 05:02:27;;;;;;;25.88;16.23;;;;;;;;;;5038864;28;20049;-92
2021/03/10 05:04:53;;;;;;;27.90;17.20;;;;;;;;;;5043714;28;20086;-91
2021/03/10 05:07:19;;;;;;;24.10;15.90;;;;;;;;;;5044673;28;20045;-91
2021/03/10 05:09:45;;;;;;;26.58;15.88;;;;;;;;;;5043994;28;20067;-91
2021/03/10 05:12:12;;;;;;;21.83;15.23;;;;;;;;;;5047257;28;20029;-85
2021/03/10 05:14:38;;;;;;;23.90;15.80;;;;;;;;;;5046526;28;20124;-92
2021/03/10 05:17:04;;;;;;;24.85;17.05;;;;;;;;;;5047802;28;20033;-92
2021/03/10 05:19:30;;;;;;;24.17;16.55;;;;;;;;;;5038439;28;20459;-91
2021/03/10 05:21:57;;;;;;;26.95;17.77;;;;;;;;;;5037535;28;20489;-92
2021/03/10 05:24:23;;;;;;;26.13;17.13;;;;;;;;;;5043672;28;20514;-91
2021/03/10 05:26:49;;;;;;;26.88;18.25;;;;;;;;;;5039803;28;20425;-90
2021/03/10 05:29:15;;;;;;;26.90;18.25;;;;;;;;;;5047270;28;20461;-91
2021/03/10 05:31:42;;;;;;;25.27;18.55;;;;;;;;;;5057201;28;20510;-90
2021/03/10 05:34:09;;;;;;;28.85;19.45;;;;;;;;;;5069552;28;20492;-90
2021/03/10 05:36:36;;;;;;;29.40;19.35;;;;;;;;;;5047608;28;20053;-90
2021/03/10 05:39:03;;;;;;;31.05;19.27;;;;;;;;;;5050520;28;20053;-90
2021/03/10 05:41:30;;;;;;;31.83;20.48;;;;;;;;;;5050138;28;20075;-91
2021/03/10 05:43:58;;;;;;;35.63;21.00;;;;;;;;;;5048548;28;20074;-91
2021/03/10 05:46:25;;;;;;;32.33;20.88;;;;;;;;;;5044337;28;20075;-92
2021/03/10 05:48:52;;;;;;;32.03;21.30;;;;;;;;;;5048625;28;20116;-92
2021/03/10 05:51:19;;;;;;;34.20;21.27;;;;;;;;;;5049238;28;20392;-85
2021/03/10 05:53:46;;;;;;;35.70;22.30;;;;;;;;;;5050065;28;20060;-86
2021/03/10 05:56:14;;;;;;;31.70;20.75;;;;;;;;;;5052591;28;20099;-86
2021/03/10 05:58:40;;;;;;;31.17;20.88;;;;;;;;;;5054124;28;20053;-85
2021/03/10 06:01:07;;;;;;;31.75;20.30;;;;;;;;;;5044792;28;20076;-85
2021/03/10 06:03:33;;;;;;;32.15;21.00;;;;;;;;;;5045627;28;20083;-85
2021/03/10 06:06:01;;;;;;;33.70;22.33;;;;;;;;;;5045266;28;20059;-86
2021/03/10 06:08:28;;;;;;;34.38;20.50;;;;;;;;;;5044644;28;20048;-87
2021/03/10 06:10:54;;;;;;;33.03;20.60;;;;;;;;;;5043272;28;20047;-89
2021/03/10 06:13:22;;;;;;;31.83;20.27;;;;;;;;;;5043555;28;20051;-87
2021/03/10 06:15:49;;;;;;;35.45;22.25;;;;;;;;;;5059468;28;20045;-89
2021/03/10 06:18:30;;;;;;;34.67;21.63;;;;;;;;;;5040571;28;20048;-90
2021/03/10 06:21:03;;;;;;;34.28;22.45;;;;;;;;;;5040060;28;20867;-93
2021/03/10 06:23:30;;;;;;;34.00;21.73;;;;;;;;;;5048497;28;20106;-93
2021/03/10 06:25:56;;;;;;;35.35;21.75;;;;;;;;;;5047462;28;20057;-94
2021/03/10 06:28:24;;;;;;;35.75;22.73;;;;;;;;;;5038710;28;20096;-86
2021/03/10 06:30:50;;;;;;;33.75;22.80;;;;;;;;;;5042721;28;20122;-82
2021/03/10 06:33:22;;;;;;;35.35;21.15;;;;;;;;;;5046260;28;20105;-83
2021/03/10 06:35:48;;;;;;;33.67;21.40;;;;;;;;;;5042460;28;20139;-84
2021/03/10 06:38:17;;;;;;;38.90;24.10;;;;;;;;;;5036604;28;20037;-83
2021/03/10 06:40:51;;;;;;;37.15;23.05;;;;;;;;;;5037682;28;20123;-83
2021/03/10 06:43:18;;;;;;;37.30;23.08;;;;;;;;;;5039546;28;20061;-82
2021/03/10 06:45:44;;;;;;;36.60;22.55;;;;;;;;;;5045548;28;20048;-83
2021/03/10 06:48:18;;;;;;;37.08;23.45;;;;;;;;;;5049096;28;20033;-83
2021/03/10 06:50:44;;;;;;;40.25;23.98;;;;;;;;;;5036352;28;20095;-83
2021/03/10 06:53:10;;;;;;;35.63;20.90;;;;;;;;;;5045652;28;20480;-82
2021/03/10 06:55:40;;;;;;;35.97;21.20;;;;;;;;;;5037200;28;20049;-82
2021/03/10 06:58:07;;;;;;;37.90;23.30;;;;;;;;;;5039903;28;20033;-84
2021/03/10 07:00:34;;;;;;;39.38;22.10;;;;;;;;;;5053531;28;20053;-84
2021/03/10 07:03:01;;;;;;;35.75;21.75;;;;;;;;;;5053822;28;20073;-85
2021/03/10 07:05:28;;;;;;;36.55;21.83;;;;;;;;;;5053190;28;20469;-86
2021/03/10 07:07:54;;;;;;;32.78;21.02;;;;;;;;;;5053623;28;20373;-83
2021/03/10 07:10:22;;;;;;;38.13;21.33;;;;;;;;;;5051834;28;20045;-82
2021/03/10 07:12:48;;;;;;;32.33;20.33;;;;;;;;;;5053077;28;20102;-82
2021/03/10 07:15:15;;;;;;;31.15;20.35;;;;;;;;;;5053486;28;20041;-82
2021/03/10 07:17:43;;;;;;;31.55;19.30;;;;;;;;;;5053131;28;20435;-82
2021/03/10 07:20:09;;;;;;;34.97;21.70;;;;;;;;;;5052820;28;20323;-82
2021/03/10 07:22:40;;;;;;;32.15;20.02;;;;;;;;;;5053138;28;20116;-82
2021/03/10 07:25:09;;;;;;;30.85;19.75;;;;;;;;;;5053043;28;20044;-81
2021/03/10 07:27:38;;;;;;;36.20;22.48;;;;;;;;;;5052720;28;20056;-80
2021/03/10 07:30:05;;;;;;;30.95;20.02;;;;;;;;;;5052613;28;20072;-82
2021/03/10 07:32:32;;;;;;;35.35;20.23;;;;;;;;;;5053315;28;20056;-82
2021/03/10 07:35:04;;;;;;;33.65;20.42;;;;;;;;;;5052641;28;20079;-82
2021/03/10 07:37:31;;;;;;;31.37;20.80;;;;;;;;;;5051302;28;20080;-81
2021/03/10 07:40:06;;;;;;;34.58;21.08;;;;;;;;;;5052109;28;20141;-81
2021/03/10 07:42:32;;;;;;;32.58;20.13;;;;;;;;;;5052485;28;20068;-81
2021/03/10 07:44:59;;;;;;;34.17;21.33;;;;;;;;;;5052660;28;20041;-82
2021/03/10 07:47:25;;;;;;;35.65;21.40;;;;;;;;;;5051058;28;20395;-82
2021/03/10 07:49:59;;;;;;;33.08;21.02;;;;;;;;;;5053047;28;20037;-81
2021/03/10 07:52:28;;;;;;;34.25;20.95;;;;;;;;;;5052185;28;20365;-82
2021/03/10 07:54:59;;;;;;;34.85;21.75;;;;;;;;;;5052142;28;20047;-82
2021/03/10 07:57:26;;;;;;;36.58;21.73;;;;;;;;;;5052658;28;20049;-81
2021/03/10 07:59:54;;;;;;;34.65;21.80;;;;;;;;;;5052298;28;20068;-82
2021/03/10 08:02:21;;;;;;;36.55;22.00;;;;;;;;;;5039761;28;20127;-82
2021/03/10 08:04:56;;;;;;;37.45;23.73;;;;;;;;;;5052338;28;20080;-82
2021/03/10 08:07:23;;;;;;;38.95;23.90;;;;;;;;;;5052078;28;20540;-82
2021/03/10 08:09:51;;;;;;;34.78;22.60;;;;;;;;;;5051921;28;20983;-82
2021/03/10 08:12:19;;;;;;;36.40;23.27;;;;;;;;;;5050642;28;20064;-82
2021/03/10 08:14:46;;;;;;;35.97;22.23;;;;;;;;;;5052575;28;20178;-82
2021/03/10 08:17:21;;;;;;;37.85;21.63;;;;;;;;;;5051976;28;20128;-82
2021/03/10 08:19:54;;;;;;;38.00;23.08;;;;;;;;;;5052219;28;20044;-82
2021/03/10 08:22:21;;;;;;;34.33;19.48;;;;;;;;;;5049962;28;20064;-82
2021/03/10 08:24:47;;;;;;;37.67;22.92;;;;;;;;;;5052125;28;20093;-82
2021/03/10 08:27:14;;;;;;;43.45;25.15;;;;;;;;;;5051652;28;20044;-82
2021/03/10 08:29:47;;;;;;;43.50;25.02;;;;;;;;;;5051526;28;20041;-82
2021/03/10 08:32:22;;;;;;;40.20;24.30;;;;;;;;;;5052018;28;20060;-82
2021/03/10 08:34:48;;;;;;;43.95;27.38;;;;;;;;;;5051594;28;20072;-82
2021/03/10 08:37:15;;;;;;;43.10;24.67;;;;;;;;;;5051212;28;20045;-82
2021/03/10 08:39:43;;;;;;;47.08;26.10;;;;;;;;;;5052024;28;20480;-89
2021/03/10 08:42:10;;;;;;;45.97;26.30;;;;;;;;;;5052164;28;20096;-90
2021/03/10 08:44:43;;;;;;;44.40;25.40;;;;;;;;;;5050938;28;20040;-83
2021/03/10 08:47:11;;;;;;;43.58;25.67;;;;;;;;;;5051912;28;20106;-83
2021/03/10 08:49:38;;;;;;;42.67;24.08;;;;;;;;;;5051601;28;20033;-83
2021/03/10 08:52:05;;;;;;;42.30;26.25;;;;;;;;;;5051313;28;20071;-83
2021/03/10 08:54:31;;;;;;;45.22;27.48;;;;;;;;;;5049779;28;20392;-84
2021/03/10 08:56:58;;;;;;;40.30;25.75;;;;;;;;;;5052163;28;20041;-82
2021/03/10 08:59:34;;;;;;;47.33;26.27;;;;;;;;;;5050742;28;20058;-82
2021/03/10 09:02:01;;;;;;;45.22;27.17;;;;;;;;;;5046358;28;20536;-82
2021/03/10 09:04:27;;;;;;;48.33;28.05;;;;;;;;;;5045657;28;20095;-82
2021/03/10 09:06:56;;;;;;;52.95;28.33;;;;;;;;;;5050005;28;20405;-84
2021/03/10 09:09:23;;;;;;;48.85;29.33;;;;;;;;;;5051191;28;20037;-83
2021/03/10 09:11:49;;;;;;;47.03;27.75;;;;;;;;;;5050837;28;20048;-82
2021/03/10 09:14:16;;;;;;;45.47;28.65;;;;;;;;;;5050771;28;20136;-82
2021/03/10 09:16:50;;;;;;;50.08;29.15;;;;;;;;;;5051451;28;20041;-82
2021/03/10 09:19:16;;;;;;;50.63;28.65;;;;;;;;;;5050623;28;20037;-82
2021/03/10 09:21:43;;;;;;;58.80;32.88;;;;;;;;;;5051203;28;20488;-82
2021/03/10 09:24:10;;;;;;;51.00;28.95;;;;;;;;;;5051086;28;20075;-82
2021/03/10 09:26:39;;;;;;;56.17;30.60;;;;;;;;;;5050993;28;20155;-82
2021/03/10 09:29:05;;;;;;;52.25;29.98;;;;;;;;;;5051207;28;20051;-82
2021/03/10 09:31:32;;;;;;;57.78;32.08;;;;;;;;;;5051067;28;20496;-82
2021/03/10 09:34:03;;;;;;;50.97;31.17;;;;;;;;;;5050835;28;20446;-82
2021/03/10 09:36:30;;;;;;;57.22;32.38;;;;;;;;;;5051244;28;20047;-82
2021/03/10 09:38:57;;;;;;;56.30;32.50;;;;;;;;;;5051227;28;20057;-82
2021/03/10 09:41:25;;;;;;;58.35;31.45;;;;;;;;;;5049581;28;20124;-82
2021/03/10 09:44:08;;;;;;;56.47;31.98;;;;;;;;;;5050819;28;20118;-81
2021/03/10 09:46:41;;;;;;;51.72;30.20;;;;;;;;;;5050757;28;20048;-82
2021/03/10 09:49:08;;;;;;;51.33;31.73;;;;;;;;;;5051099;28;20443;-82
2021/03/10 09:51:44;;;;;;;53.40;31.33;;;;;;;;;;5050773;28;20041;-82
2021/03/10 09:54:11;;;;;;;56.22;30.70;;;;;;;;;;5050546;28;20041;-82
2021/03/10 09:56:40;;;;;;;60.20;33.50;;;;;;;;;;5050653;28;20036;-82
2021/03/10 09:59:11;;;;;;;52.35;32.50;;;;;;;;;;5050792;28;20372;-82
2021/03/10 10:01:45;;;;;;;54.05;30.60;;;;;;;;;;5048750;28;20120;-81
2021/03/10 10:04:12;;;;;;;52.28;32.67;;;;;;;;;;5050186;28;20625;-82
2021/03/10 10:06:51;;;;;;;59.20;33.35;;;;;;;;;;5045947;28;20055;-83
2021/03/10 10:09:18;;;;;;;56.55;33.65;;;;;;;;;;5036441;28;20207;-82
2021/03/10 10:11:44;;;;;;;53.78;33.25;;;;;;;;;;5050437;28;20055;-82
2021/03/10 10:14:10;;;;;;;57.45;33.67;;;;;;;;;;5050662;28;20059;-81
2021/03/10 10:16:37;;;;;;;55.88;32.42;;;;;;;;;;5050471;28;20114;-82
2021/03/10 10:19:04;;;;;;;53.22;32.00;;;;;;;;;;5049776;28;20147;-82
2021/03/10 10:21:30;;;;;;;55.25;31.88;;;;;;;;;;5050085;28;20489;-81
2021/03/10 10:23:59;;;;;;;53.35;32.95;;;;;;;;;;5049155;28;20041;-81
2021/03/10 10:26:25;;;;;;;53.97;31.77;;;;;;;;;;5050638;28;20041;-86
2021/03/10 10:28:51;;;;;;;50.97;31.55;;;;;;;;;;5053039;28;20124;-90
2021/03/10 10:31:18;;;;;;;56.92;32.15;;;;;;;;;;5049947;28;20041;-89
2021/03/10 10:33:44;;;;;;;55.55;32.88;;;;;;;;;;5048129;28;20037;-89
2021/03/10 10:36:10;;;;;;;58.67;34.90;;;;;;;;;;5053616;28;20037;-87
2021/03/10 10:38:37;;;;;;;48.35;29.08;;;;;;;;;;5054516;28;20056;-88
2021/03/10 10:41:03;;;;;;;49.28;31.05;;;;;;;;;;5052832;28;20122;-86
2021/03/10 10:43:34;;;;;;;53.40;30.05;;;;;;;;;;5055324;28;20076;-90
2021/03/10 10:46:00;;;;;;;51.75;31.75;;;;;;;;;;5063292;28;20071;-90
2021/03/10 10:48:26;;;;;;;52.85;31.20;;;;;;;;;;5060889;28;20064;-83
2021/03/10 10:50:52;;;;;;;49.60;29.95;;;;;;;;;;5053694;28;20091;-82
2021/03/10 10:53:19;;;;;;;51.15;30.88;;;;;;;;;;5053572;28;20048;-88
2021/03/10 10:55:45;;;;;;;54.10;32.10;;;;;;;;;;5053659;28;20407;-83
2021/03/10 10:58:11;;;;;;;53.38;31.40;;;;;;;;;;5053075;28;20037;-83
2021/03/10 11:00:38;;;;;;;53.45;31.58;;;;;;;;;;5053069;28;20053;-84
2021/03/10 11:03:04;;;;;;;54.00;31.30;;;;;;;;;;5053570;28;20503;-83
2021/03/10 11:05:31;;;;;;;51.03;32.13;;;;;;;;;;5052761;28;20071;-83
2021/03/10 11:07:57;;;;;;;53.85;32.45;;;;;;;;;;5053241;28;20041;-83
2021/03/10 11:10:24;;;;;;;54.38;30.85;;;;;;;;;;5053503;28;20103;-83
2021/03/10 11:12:50;;;;;;;53.47;32.15;;;;;;;;;;5053100;28;20049;-83
2021/03/10 11:15:17;;;;;;;54.40;30.77;;;;;;;;;;5053076;28;20055;-84
2021/03/10 11:17:43;;;;;;;51.55;33.05;;;;;;;;;;5053508;28;20473;-83
2021/03/10 11:20:10;;;;;;;49.78;30.75;;;;;;;;;;5052647;28;20503;-83
2021/03/10 11:22:36;;;;;;;49.63;29.48;;;;;;;;;;5052749;28;20116;-84
2021/03/10 11:25:10;;;;;;;51.63;31.38;;;;;;;;;;5052312;28;20393;-83
2021/03/10 11:27:37;;;;;;;52.25;30.63;;;;;;;;;;5051837;28;20052;-84
2021/03/10 11:30:06;;;;;;;51.20;30.63;;;;;;;;;;5052847;28;20069;-84
2021/03/10 11:32:33;;;;;;;53.83;30.15;;;;;;;;;;5052457;28;20063;-82
2021/03/10 11:34:59;;;;;;;51.80;30.90;;;;;;;;;;5053039;28;20219;-83
2021/03/10 11:37:26;;;;;;;47.08;30.77;;;;;;;;;;5052100;28;20053;-83
2021/03/10 11:39:53;;;;;;;49.97;30.08;;;;;;;;;;5052402;28;20041;-83
2021/03/10 11:42:19;;;;;;;55.97;30.08;;;;;;;;;;5052683;28;20053;-82
2021/03/10 11:44:46;;;;;;;50.22;30.92;;;;;;;;;;5052455;28;20079;-83
2021/03/10 11:47:13;;;;;;;52.75;32.17;;;;;;;;;;5052262;28;20076;-82
2021/03/10 11:49:39;;;;;;;54.20;29.83;;;;;;;;;;5052563;28;20114;-83
2021/03/10 11:52:06;;;;;;;46.17;29.08;;;;;;;;;;5051571;28;20052;-83
2021/03/10 11:54:32;;;;;;;46.58;29.98;;;;;;;;;;5050910;28;20103;-83
2021/03/10 11:56:59;;;;;;;51.80;30.75;;;;;;;;;;5052508;28;20065;-82
2021/03/10 11:59:25;;;;;;;52.65;30.75;;;;;;;;;;5052584;28;20046;-83
2021/03/10 12:01:52;;;;;;;47.38;30.20;;;;;;;;;;5051623;28;20400;-82
2021/03/10 12:04:18;;;;;;;40.60;27.30;;;;;;;;;;5052527;28;20052;-82
2021/03/10 12:06:44;;;;;;;48.80;28.55;;;;;;;;;;5052321;28;20468;-82
2021/03/10 12:09:11;;;;;;;47.85;29.63;;;;;;;;;;5052215;28;20045;-84
2021/03/10 12:11:37;;;;;;;54.08;28.90;;;;;;;;;;5052435;28;20041;-89
2021/03/10 12:14:03;;;;;;;46.45;29.70;;;;;;;;;;5052567;28;20041;-85
2021/03/10 12:16:30;;;;;;;43.30;29.55;;;;;;;;;;5052399;28;20052;-82
2021/03/10 12:18:56;;;;;;;47.10;29.58;;;;;;;;;;5051779;28;20406;-86
2021/03/10 12:21:22;;;;;;;43.67;28.23;;;;;;;;;;5051714;28;20500;-84
2021/03/10 12:23:49;;;;;;;49.97;29.40;;;;;;;;;;5052094;28;20099;-82
2021/03/10 12:26:15;;;;;;;45.40;28.60;;;;;;;;;;5050593;28;20085;-82
2021/03/10 12:28:41;;;;;;;46.25;28.52;;;;;;;;;;5051590;28;20071;-81
2021/03/10 12:31:08;;;;;;;53.45;30.95;;;;;;;;;;5052060;28;20037;-81
2021/03/10 12:33:34;;;;;;;43.92;28.88;;;;;;;;;;5051760;28;20477;-82
2021/03/10 12:36:00;;;;;;;49.67;29.77;;;;;;;;;;5051433;28;20048;-82
2021/03/10 12:38:27;;;;;;;42.38;28.35;;;;;;;;;;5051780;28;20053;-82
2021/03/10 12:40:53;;;;;;;47.10;27.63;;;;;;;;;;5051293;28;20049;-90
2021/03/10 12:43:20;;;;;;;48.90;27.70;;;;;;;;;;5052116;28;20107;-90
2021/03/10 12:45:47;;;;;;;46.20;27.95;;;;;;;;;;5052191;28;20487;-84
2021/03/10 12:48:13;;;;;;;48.80;31.30;;;;;;;;;;5051504;28;20045;-85
2021/03/10 12:50:40;;;;;;;42.97;28.55;;;;;;;;;;5050855;28;20041;-83
2021/03/10 12:53:06;;;;;;;44.72;27.95;;;;;;;;;;5051391;28;20102;-84
2021/03/10 12:55:33;;;;;;;43.63;28.00;;;;;;;;;;5050373;28;20060;-84
2021/03/10 12:57:59;;;;;;;46.88;28.88;;;;;;;;;;5050963;28;20453;-84
2021/03/10 13:00:26;;;;;;;47.08;28.75;;;;;;;;;;5050955;28;20049;-84
2021/03/10 13:02:56;;;;;;;42.97;28.83;;;;;;;;;;5050138;28;20080;-84
2021/03/10 13:05:22;;;;;;;47.63;28.33;;;;;;;;;;5050917;28;20132;-84
2021/03/10 13:07:49;;;;;;;42.75;26.92;;;;;;;;;;5051214;28;20121;-85
2021/03/10 13:10:15;;;;;;;42.67;26.90;;;;;;;;;;5050845;28;20055;-84
2021/03/10 13:12:41;;;;;;;39.20;26.50;;;;;;;;;;5050331;28;20370;-84
2021/03/10 13:15:08;;;;;;;44.40;27.30;;;;;;;;;;5051127;28;20048;-84
2021/03/10 13:17:34;;;;;;;40.65;25.83;;;;;;;;;;5050565;28;20041;-84
2021/03/10 13:20:01;;;;;;;47.95;28.75;;;;;;;;;;5052805;28;20041;-91
2021/03/10 13:22:27;;;;;;;40.08;26.25;;;;;;;;;;5056474;28;20066;-92
2021/03/10 13:24:54;;;;;;;39.67;26.30;;;;;;;;;;5072524;28;20132;-90
2021/03/10 13:27:20;;;;;;;42.22;26.42;;;;;;;;;;5051962;28;20106;-91
2021/03/10 13:29:46;;;;;;;41.83;26.80;;;;;;;;;;5051586;28;20132;-91
2021/03/10 13:32:13;;;;;;;41.42;27.02;;;;;;;;;;5049993;28;20511;-90
2021/03/10 13:34:39;;;;;;;37.78;25.95;;;;;;;;;;5051871;28;20094;-91
2021/03/10 13:37:06;;;;;;;37.85;25.75;;;;;;;;;;5051488;28;20127;-91
2021/03/10 13:39:32;;;;;;;43.13;25.20;;;;;;;;;;5051534;28;20033;-91
2021/03/10 13:41:58;;;;;;;46.47;28.23;;;;;;;;;;5051208;28;20045;-91
2021/03/10 13:44:25;;;;;;;45.15;27.38;;;;;;;;;;5051829;28;20076;-89
2021/03/10 13:46:53;;;;;;;43.70;29.00;;;;;;;;;;5051603;28;20468;-93
2021/03/10 13:49:19;;;;;;;45.63;27.02;;;;;;;;;;5052795;28;20148;-92
2021/03/10 13:51:46;;;;;;;46.92;29.40;;;;;;;;;;5052963;28;20045;-93
2021/03/10 13:54:12;;;;;;;42.65;26.98;;;;;;;;;;5052543;28;20085;-92
2021/03/10 13:56:38;;;;;;;43.13;26.90;;;;;;;;;;5068029;28;20041;-91
2021/03/10 13:59:05;;;;;;;42.95;27.25;;;;;;;;;;5053810;28;20065;-91
2021/03/10 14:01:31;;;;;;;43.60;27.73;;;;;;;;;;5053777;28;20087;-91
2021/03/10 14:03:57;;;;;;;45.88;29.27;;;;;;;;;;5055343;28;20123;-91
2021/03/10 14:06:24;;;;;;;45.35;28.55;;;;;;;;;;5043891;28;20136;-89
2021/03/10 14:08:50;;;;;;;48.35;27.92;;;;;;;;;;5050360;28;20044;-89
2021/03/10 14:11:16;;;;;;;48.83;31.08;;;;;;;;;;5056455;28;20090;-93
2021/03/10 14:13:43;;;;;;;49.25;30.88;;;;;;;;;;5056907;28;20044;-93
2021/03/10 14:16:09;;;;;;;49.85;29.92;;;;;;;;;;5055736;28;20037;-93
2021/03/10 14:18:38;;;;;;;44.65;27.83;;;;;;;;;;5053997;28;20041;-93